Weather at Perth International Airport

Public forecast

Using degrees Celsius for public forecast. Weather courtesy of forecast.io.

Current aviation weather report (METAR) for Perth International Airport

Retrieved 2020/10/28 02:30 UTC (0 seconds ago):

YPPH 280230Z 18008KT 9999 FEW044 24/10 Q1019 NOSIG

Aviation forecast (TAF) for Perth International Airport

Retrieved 2020-10-28 00:31 UTC (2 hours ago):

TAF YPPH 272327Z 2800/2906 VRB03KT CAVOK FM280500 23014KT CAVOK FM281200 17008KT CAVOK FM281600 09014KT CAVOK FM290000 09016G28KT CAVOK FM290400 09012KT CAVOK